createdAt,value
2019-03-26T00:01:21.193Z,2.87
2019-03-26T00:03:51.360Z,3.20
2019-03-26T00:06:21.556Z,4.50
2019-03-26T00:08:51.737Z,4.53
2019-03-26T00:11:21.895Z,3.33
2019-03-26T00:13:52.046Z,3.97
2019-03-26T00:16:22.195Z,4.57
2019-03-26T00:18:52.349Z,4.13
2019-03-26T00:21:22.526Z,2.90
2019-03-26T00:23:52.885Z,4.37
2019-03-26T00:26:23.336Z,4.20
2019-03-26T00:28:53.493Z,3.97
2019-03-26T00:31:23.669Z,4.13
2019-03-26T00:33:53.841Z,3.63
2019-03-26T00:36:23.990Z,5.10
2019-03-26T00:38:54.134Z,4.40
2019-03-26T00:41:24.330Z,4.73
2019-03-26T00:43:54.708Z,3.83
2019-03-26T00:46:24.970Z,3.33
2019-03-26T00:48:55.218Z,3.03
2019-03-26T00:51:25.400Z,3.00
2019-03-26T00:53:55.585Z,4.13
2019-03-26T01:07:13.514Z,5.63
2019-03-26T01:09:44.100Z,5.57
2019-03-26T01:12:14.267Z,3.43
2019-03-26T01:14:44.498Z,4.33
2019-03-26T01:17:14.709Z,5.40
2019-03-26T01:19:44.860Z,4.27
2019-03-26T01:22:15.035Z,4.90
2019-03-26T01:24:45.201Z,5.03
2019-03-26T01:27:15.359Z,4.70
2019-03-26T01:29:45.529Z,5.50
2019-03-26T01:32:15.698Z,4.27
2019-03-26T01:34:46.479Z,3.57
2019-03-26T01:37:16.829Z,5.03
2019-03-26T01:39:46.996Z,4.90
2019-03-26T01:42:17.150Z,2.93
2019-03-26T01:44:47.371Z,5.60
2019-03-26T01:47:36.633Z,4.87
2019-03-26T01:50:07.089Z,6.63
2019-03-26T01:52:37.686Z,5.27
2019-03-26T01:55:08.169Z,6.07
2019-03-26T01:57:38.322Z,5.70
2019-03-26T02:00:08.883Z,6.30
2019-03-26T02:02:39.026Z,7.30
2019-03-26T02:05:09.321Z,6.10
2019-03-26T02:07:39.516Z,5.70
2019-03-26T02:10:10.100Z,5.27
2019-03-26T02:12:40.326Z,7.43
2019-03-26T02:15:14.102Z,4.47
2019-03-26T02:17:44.261Z,5.77
2019-03-26T02:20:14.509Z,5.23
2019-03-26T02:22:44.706Z,7.23
2019-03-26T02:25:14.864Z,5.67
2019-03-26T02:27:45.026Z,5.37
2019-03-26T02:30:15.361Z,6.40
2019-03-26T02:32:45.508Z,6.60
2019-03-26T02:35:18.317Z,5.67
2019-03-26T02:37:47.576Z,4.33
2019-03-26T02:40:17.715Z,4.37
2019-03-26T02:42:47.890Z,6.47
2019-03-26T02:45:18.050Z,5.30
2019-03-26T02:47:48.250Z,5.20
2019-03-26T02:50:18.608Z,6.77
2019-03-26T02:52:48.771Z,6.60
2019-03-26T02:55:18.949Z,7.03
2019-03-26T02:57:49.096Z,6.37
2019-03-26T03:00:19.323Z,7.40
2019-03-26T03:02:49.478Z,5.50
2019-03-26T03:05:34.423Z,4.73
2019-03-26T03:07:51.459Z,6.43
2019-03-26T03:10:22.612Z,7.53
2019-03-26T03:12:52.833Z,5.03
2019-03-26T03:15:23.052Z,8.67
2019-03-26T03:17:53.269Z,5.67
2019-03-26T03:20:24.482Z,5.97
2019-03-26T03:22:54.630Z,5.73
2019-03-26T03:25:24.788Z,5.20
2019-03-26T03:27:54.961Z,4.33
2019-03-26T03:30:25.178Z,5.70
2019-03-26T03:32:55.365Z,5.40
2019-03-26T03:35:25.541Z,4.90
2019-03-26T03:37:55.707Z,3.27
2019-03-26T03:40:25.854Z,4.93
2019-03-26T03:42:56.087Z,4.83
2019-03-26T03:45:30.503Z,3.87
2019-03-26T03:48:01.780Z,4.03
2019-03-26T03:50:33.497Z,4.97
2019-03-26T03:53:05.250Z,4.13
2019-03-26T03:55:35.902Z,3.87
2019-03-26T03:58:06.480Z,4.57
2019-03-26T04:00:40.758Z,5.67
2019-03-26T04:03:11.413Z,5.10
2019-03-26T04:05:41.559Z,5.83
2019-03-26T04:08:11.791Z,3.87
2019-03-26T04:10:41.930Z,4.00
2019-03-26T04:13:12.084Z,4.00
2019-03-26T04:15:42.429Z,4.77
2019-03-26T04:18:12.600Z,3.93
2019-03-26T04:20:42.974Z,3.53
2019-03-26T04:23:13.117Z,5.40
2019-03-26T04:25:43.254Z,4.40
2019-03-26T04:28:13.527Z,4.37
2019-03-26T04:30:43.685Z,3.53
2019-03-26T04:33:13.843Z,3.23
2019-03-26T04:35:43.975Z,4.53
2019-03-26T04:38:14.218Z,3.47
2019-03-26T04:41:04.370Z,3.40
2019-03-26T04:43:34.542Z,3.57
2019-03-26T04:46:04.764Z,3.83
2019-03-26T04:48:34.927Z,4.83
2019-03-26T04:51:05.162Z,2.37
2019-03-26T04:53:35.352Z,4.83
2019-03-26T04:56:05.503Z,2.87
2019-03-26T04:58:35.667Z,3.20
2019-03-26T05:01:05.861Z,3.87
2019-03-26T05:03:36.076Z,4.37
2019-03-26T05:06:06.241Z,2.63
2019-03-26T05:08:36.382Z,3.90
2019-03-26T05:11:06.580Z,2.67
2019-03-26T05:13:36.729Z,2.47
2019-03-26T05:16:06.945Z,2.10
2019-03-26T05:18:37.077Z,3.07
2019-03-26T05:21:08.302Z,3.07
2019-03-26T05:23:38.437Z,3.03
2019-03-26T05:26:08.606Z,2.30
2019-03-26T05:28:38.776Z,3.43
2019-03-26T05:31:08.946Z,3.23
2019-03-26T05:33:39.109Z,3.40
2019-03-26T05:36:09.254Z,3.30
2019-03-26T05:38:39.408Z,4.77
2019-03-26T05:41:10.598Z,2.53
2019-03-26T05:43:40.979Z,3.27
2019-03-26T05:46:11.223Z,3.00
2019-03-26T05:48:41.361Z,4.33
2019-03-26T05:51:11.496Z,2.73
2019-03-26T05:53:41.682Z,3.47
2019-03-26T05:56:12.024Z,3.53
2019-03-26T05:59:01.171Z,3.17
2019-03-26T06:01:31.430Z,3.33
2019-03-26T06:04:01.629Z,3.20
2019-03-26T06:06:31.814Z,4.33
2019-03-26T06:09:01.953Z,3.77
2019-03-26T06:11:33.078Z,4.17
2019-03-26T06:14:03.323Z,4.70
2019-03-26T06:16:38.673Z,2.90
2019-03-26T06:19:05.361Z,4.00
2019-03-26T06:21:35.540Z,3.70
2019-03-26T06:24:05.783Z,3.50
2019-03-26T06:26:36.006Z,4.97
2019-03-26T06:29:06.342Z,3.27
2019-03-26T06:31:36.527Z,5.43
2019-03-26T06:34:06.685Z,4.40
2019-03-26T06:36:36.862Z,5.87
2019-03-26T06:39:08.624Z,4.80
2019-03-26T06:41:38.795Z,3.47
2019-03-26T06:44:09.133Z,4.47
2019-03-26T06:46:39.301Z,2.20
2019-03-26T06:49:09.447Z,3.50
2019-03-26T06:51:39.585Z,3.50
2019-03-26T06:54:09.817Z,3.60
2019-03-26T06:56:39.990Z,4.23
2019-03-26T06:59:10.141Z,4.50
2019-03-26T07:01:40.412Z,5.03
2019-03-26T07:04:10.549Z,4.63
2019-03-26T07:06:40.704Z,3.47
2019-03-26T07:09:10.864Z,4.43
2019-03-26T07:11:41.012Z,3.70
2019-03-26T07:14:11.252Z,4.10
2019-03-26T07:16:41.489Z,4.07
2019-03-26T07:19:11.657Z,3.83
2019-03-26T07:21:49.476Z,3.60
2019-03-26T07:24:13.786Z,4.43
2019-03-26T07:26:43.919Z,7.03
2019-03-26T07:29:14.110Z,3.20
2019-03-26T07:31:44.262Z,5.87
2019-03-26T07:34:14.450Z,4.70
2019-03-26T07:36:44.595Z,3.73
2019-03-26T07:39:15.282Z,4.47
2019-03-26T07:41:45.527Z,5.00
2019-03-26T07:44:15.674Z,5.63
2019-03-26T07:46:45.849Z,4.90
2019-03-26T07:49:15.997Z,4.00
2019-03-26T07:51:46.167Z,5.33
2019-03-26T07:54:16.349Z,5.30
2019-03-26T07:56:46.514Z,4.77
2019-03-26T07:59:16.758Z,5.93
2019-03-26T08:01:47.007Z,4.30
2019-03-26T08:04:17.249Z,4.27
2019-03-26T08:06:48.702Z,5.83
2019-03-26T08:09:19.013Z,4.77
2019-03-26T08:11:49.395Z,5.13
2019-03-26T08:14:19.646Z,4.07
2019-03-26T08:16:49.876Z,3.77
2019-03-26T08:19:20.068Z,4.50
2019-03-26T08:21:50.230Z,4.33
2019-03-26T08:24:21.533Z,5.50
2019-03-26T08:26:52.215Z,4.33
2019-03-26T08:29:22.522Z,4.83
2019-03-26T08:31:52.716Z,3.87
2019-03-26T08:34:23.120Z,3.77
2019-03-26T08:36:54.369Z,4.43
2019-03-26T08:39:24.509Z,5.70
2019-03-26T08:41:54.666Z,5.23
2019-03-26T08:44:25.067Z,5.67
2019-03-26T08:46:55.226Z,4.67
2019-03-26T08:49:30.640Z,5.37
2019-03-26T08:51:57.282Z,4.47
2019-03-26T08:54:27.421Z,5.60
2019-03-26T08:56:57.574Z,3.93
2019-03-26T08:59:27.752Z,4.20
2019-03-26T09:01:57.943Z,6.13
2019-03-26T09:04:28.107Z,5.83
2019-03-26T09:06:58.261Z,5.73
2019-03-26T09:09:29.484Z,5.30
2019-03-26T09:12:00.702Z,4.40
2019-03-26T09:14:31.066Z,4.00
2019-03-26T09:17:01.219Z,6.43
2019-03-26T09:19:31.453Z,5.53
2019-03-26T09:22:01.655Z,8.70
2019-03-26T09:24:31.849Z,5.13
2019-03-26T09:27:02.031Z,4.90
2019-03-26T09:29:33.422Z,4.90
2019-03-26T09:32:03.762Z,4.57
2019-03-26T09:34:33.935Z,4.23
2019-03-26T09:37:04.198Z,5.03
2019-03-26T09:39:34.436Z,3.77
2019-03-26T09:42:04.585Z,5.80
2019-03-26T09:44:34.781Z,3.83
2019-03-26T09:47:15.452Z,4.43
2019-03-26T09:49:36.952Z,3.63
2019-03-26T09:52:07.274Z,2.70
2019-03-26T09:54:37.529Z,3.27
2019-03-26T09:57:07.724Z,4.53
2019-03-26T09:59:38.008Z,3.77
2019-03-26T10:02:08.217Z,5.13
2019-03-26T10:04:38.349Z,4.37
2019-03-26T10:07:20.748Z,3.50
2019-03-26T10:09:40.374Z,4.67
2019-03-26T10:12:10.551Z,3.37
2019-03-26T10:14:40.749Z,3.30
2019-03-26T10:17:10.945Z,5.00
2019-03-26T10:19:41.194Z,3.03
2019-03-26T10:22:11.424Z,4.03
2019-03-26T10:24:41.974Z,2.97
2019-03-26T10:27:12.117Z,4.70
2019-03-26T10:29:42.516Z,2.47
2019-03-26T10:32:12.742Z,3.50
2019-03-26T10:34:43.246Z,5.83
2019-03-26T10:37:13.538Z,4.57
2019-03-26T10:39:43.731Z,4.10
2019-03-26T10:42:13.943Z,4.37
2019-03-26T10:44:44.101Z,3.13
2019-03-26T10:47:14.290Z,4.13
2019-03-26T10:49:44.561Z,4.53
2019-03-26T10:52:14.925Z,2.97
2019-03-26T10:54:45.071Z,3.23
2019-03-26T10:57:15.231Z,5.40
2019-03-26T10:59:45.426Z,3.77
2019-03-26T11:02:15.715Z,3.97
2019-03-26T11:04:45.982Z,2.90
2019-03-26T11:07:16.240Z,3.90
2019-03-26T11:09:46.402Z,4.60
2019-03-26T11:12:16.616Z,3.97
2019-03-26T11:14:46.792Z,4.47
2019-03-26T11:17:17.137Z,2.97
2019-03-26T11:19:47.283Z,3.17
2019-03-26T11:22:17.414Z,6.60
2019-03-26T11:24:47.591Z,5.57
2019-03-26T11:27:17.745Z,4.27
2019-03-26T11:29:47.999Z,3.10
2019-03-26T11:32:18.183Z,5.43
2019-03-26T11:34:48.665Z,5.27
2019-03-26T11:37:18.969Z,5.10
2019-03-26T11:39:49.236Z,4.00
2019-03-26T11:42:19.379Z,6.20
2019-03-26T11:44:49.691Z,2.90
2019-03-26T11:47:19.861Z,3.00
2019-03-26T11:49:52.282Z,3.47
2019-03-26T11:52:22.569Z,3.37
2019-03-26T11:54:52.799Z,4.90
2019-03-26T11:57:23.002Z,3.97
2019-03-26T11:59:53.422Z,3.97
2019-03-26T12:02:23.750Z,4.60
2019-03-26T12:04:54.645Z,3.37
2019-03-26T12:07:24.802Z,4.47
2019-03-26T12:09:54.998Z,3.83
2019-03-26T12:12:25.165Z,4.33
2019-03-26T12:14:55.495Z,3.83
2019-03-26T12:17:25.776Z,4.67
2019-03-26T12:19:55.997Z,4.13
2019-03-26T12:22:26.283Z,4.10
2019-03-26T12:24:56.446Z,4.80
2019-03-26T12:27:26.597Z,4.80
2019-03-26T12:29:57.255Z,4.03
2019-03-26T12:32:27.434Z,3.93
2019-03-26T12:34:57.782Z,4.30
2019-03-26T12:37:27.918Z,3.73
2019-03-26T12:39:59.694Z,3.87
2019-03-26T12:42:29.978Z,4.53
2019-03-26T12:45:00.151Z,2.97
2019-03-26T12:47:30.555Z,4.57
2019-03-26T12:50:00.730Z,5.03
2019-03-26T12:52:30.897Z,5.00
2019-03-26T12:55:01.078Z,3.07
2019-03-26T12:57:31.254Z,4.07
2019-03-26T13:00:01.443Z,3.83
2019-03-26T13:02:31.620Z,4.73
2019-03-26T13:05:01.853Z,4.03
2019-03-26T13:07:32.078Z,4.00
2019-03-26T13:10:12.908Z,3.13
2019-03-26T13:12:34.074Z,4.13
2019-03-26T13:15:04.767Z,3.43
2019-03-26T13:17:34.993Z,5.07
2019-03-26T13:20:05.559Z,4.97
2019-03-26T13:22:35.718Z,4.07
2019-03-26T13:25:08.356Z,4.00
2019-03-26T13:27:38.517Z,3.47
2019-03-26T13:30:09.739Z,4.63
2019-03-26T13:32:39.931Z,3.67
2019-03-26T13:35:10.570Z,3.70
2019-03-26T13:37:40.737Z,4.87
2019-03-26T13:40:11.266Z,4.03
2019-03-26T13:42:41.434Z,4.93
2019-03-26T13:45:12.174Z,3.87
2019-03-26T13:47:42.340Z,3.20
2019-03-26T13:50:14.051Z,4.17
2019-03-26T13:52:44.193Z,4.00
2019-03-26T13:55:14.619Z,4.80
2019-03-26T13:57:44.788Z,5.07
2019-03-26T14:00:17.664Z,3.90
2019-03-26T14:03:06.941Z,4.33
2019-03-26T14:05:37.078Z,3.90
2019-03-26T14:08:07.391Z,5.20
2019-03-26T14:10:41.164Z,3.30
2019-03-26T14:13:09.569Z,6.57
2019-03-26T14:15:39.951Z,4.20
2019-03-26T14:18:10.137Z,4.33
2019-03-26T14:20:40.299Z,4.83
2019-03-26T14:23:10.506Z,4.27
2019-03-26T14:25:40.669Z,5.50
2019-03-26T14:28:10.851Z,4.60
2019-03-26T14:30:45.772Z,5.80
2019-03-26T14:33:16.045Z,5.23
2019-03-26T14:35:46.246Z,5.37
2019-03-26T14:38:16.409Z,4.63
2019-03-26T14:40:54.485Z,2.53
2019-03-26T14:43:19.574Z,3.97
2019-03-26T14:45:49.817Z,3.57
2019-03-26T14:48:19.942Z,5.17
2019-03-26T14:50:50.266Z,5.17
2019-03-26T14:53:20.382Z,3.97
2019-03-26T14:55:50.548Z,3.37
2019-03-26T14:58:20.730Z,4.70
2019-03-26T15:00:51.014Z,4.07
2019-03-26T15:03:22.303Z,5.63
2019-03-26T15:05:52.451Z,3.50
2019-03-26T15:08:22.570Z,3.00
2019-03-26T15:10:52.799Z,4.40
2019-03-26T15:13:22.962Z,4.80
2019-03-26T15:15:53.310Z,4.40
2019-03-26T15:18:23.474Z,3.33
2019-03-26T15:20:53.805Z,7.00
2019-03-26T15:23:23.958Z,5.80
2019-03-26T15:25:54.098Z,6.43
2019-03-26T15:28:24.398Z,6.37
2019-03-26T15:30:54.584Z,6.80
2019-03-26T15:33:24.828Z,5.97
2019-03-26T15:35:54.985Z,7.77
2019-03-26T15:38:25.158Z,9.27
2019-03-26T15:40:55.302Z,7.70
2019-03-26T15:43:25.462Z,9.50
2019-03-26T15:45:55.637Z,10.10
2019-03-26T15:48:25.850Z,10.20
2019-03-26T15:50:56.000Z,7.23
2019-03-26T15:53:26.201Z,9.40
2019-03-26T15:55:56.381Z,9.90
2019-03-26T15:58:26.579Z,10.10
2019-03-26T16:00:56.745Z,7.50
2019-03-26T16:03:26.938Z,7.47
2019-03-26T16:05:57.251Z,9.20
2019-03-26T16:08:27.403Z,9.20
2019-03-26T16:10:57.564Z,8.87
2019-03-26T16:13:27.755Z,8.50
2019-03-26T16:15:57.961Z,6.33
2019-03-26T16:18:28.138Z,6.37
2019-03-26T16:20:58.313Z,8.30
2019-03-26T16:23:28.521Z,8.70
2019-03-26T16:25:58.686Z,7.20
2019-03-26T16:28:28.870Z,7.63
2019-03-26T16:30:59.030Z,8.70
2019-03-26T16:33:29.247Z,7.10
2019-03-26T16:35:59.425Z,6.80
2019-03-26T16:38:29.596Z,10.93
2019-03-26T16:41:00.557Z,6.97
2019-03-26T16:43:30.832Z,7.37
2019-03-26T16:46:01.008Z,7.90
2019-03-26T16:48:31.166Z,6.80
2019-03-26T16:51:01.332Z,7.87
2019-03-26T16:53:31.495Z,7.87
2019-03-26T16:56:01.806Z,9.27
2019-03-26T16:58:31.928Z,8.47
2019-03-26T17:01:02.091Z,8.93
2019-03-26T17:03:32.363Z,8.73
2019-03-26T17:06:02.606Z,7.70
2019-03-26T17:08:32.762Z,8.77
2019-03-26T17:11:03.007Z,8.13
2019-03-26T17:13:33.350Z,8.50
2019-03-26T17:16:05.674Z,8.63
2019-03-26T17:18:35.371Z,9.80
2019-03-26T17:21:05.589Z,8.40
2019-03-26T17:23:35.745Z,8.53
2019-03-26T17:26:09.326Z,8.30
2019-03-26T17:28:39.502Z,8.70
2019-03-26T17:31:09.717Z,9.00
2019-03-26T17:33:39.946Z,8.83
2019-03-26T17:36:10.387Z,8.40
2019-03-26T17:38:40.533Z,8.57
2019-03-26T17:41:12.173Z,8.13
2019-03-26T17:43:42.381Z,7.67
2019-03-26T17:46:12.588Z,7.67
2019-03-26T17:48:42.758Z,7.73
2019-03-26T17:51:14.030Z,7.83
2019-03-26T17:53:44.181Z,8.83
2019-03-26T17:56:14.351Z,7.63
2019-03-26T17:58:44.527Z,9.03
2019-03-26T18:01:14.649Z,8.27
2019-03-26T18:03:44.978Z,7.17
2019-03-26T18:06:15.270Z,6.93
2019-03-26T18:08:45.493Z,10.10
2019-03-26T18:11:15.637Z,6.70
2019-03-26T18:13:45.793Z,7.37
2019-03-26T18:16:15.944Z,8.33
2019-03-26T18:18:46.088Z,8.27
2019-03-26T18:21:16.253Z,8.50
2019-03-26T18:23:46.389Z,8.47
2019-03-26T18:26:16.544Z,8.10
2019-03-26T18:28:46.701Z,9.73
2019-03-26T18:31:16.971Z,7.57
2019-03-26T18:33:47.212Z,7.97
2019-03-26T18:36:17.346Z,6.67
2019-03-26T18:38:47.481Z,8.30
2019-03-26T18:41:17.623Z,7.53
2019-03-26T18:43:47.846Z,9.30
2019-03-26T18:46:18.011Z,8.23
2019-03-26T18:48:49.130Z,8.63
2019-03-26T18:51:19.273Z,8.97
2019-03-26T18:53:49.404Z,5.93
2019-03-26T18:56:19.531Z,6.87
2019-03-26T18:58:49.711Z,9.50
2019-03-26T19:01:19.934Z,7.77
2019-03-26T19:03:50.070Z,8.50
2019-03-26T19:06:20.473Z,7.90
2019-03-26T19:08:50.625Z,9.43
2019-03-26T19:11:20.795Z,6.90
2019-03-26T19:13:51.038Z,6.73
2019-03-26T19:16:21.238Z,6.33
2019-03-26T19:18:51.371Z,6.93
2019-03-26T19:21:21.555Z,6.83
2019-03-26T19:24:03.338Z,6.30
2019-03-26T19:26:23.654Z,6.37
2019-03-26T19:28:53.792Z,5.07
2019-03-26T19:31:23.972Z,6.67
2019-03-26T19:33:54.293Z,4.93
2019-03-26T19:36:24.698Z,5.83
2019-03-26T19:38:54.866Z,6.13
2019-03-26T19:41:24.999Z,7.97
2019-03-26T19:43:55.230Z,5.57
2019-03-26T19:46:25.373Z,4.90
2019-03-26T19:48:55.531Z,3.83
2019-03-26T19:51:25.675Z,5.37
2019-03-26T19:53:55.817Z,5.77
2019-03-26T19:56:26.016Z,4.37
2019-03-26T19:58:56.153Z,4.37
2019-03-26T20:01:26.283Z,4.00
2019-03-26T20:03:56.442Z,5.10
2019-03-26T20:06:26.657Z,4.80
2019-03-26T20:08:56.831Z,4.60
2019-03-26T20:11:27.056Z,3.67
2019-03-26T20:13:57.262Z,4.33
2019-03-26T20:16:36.540Z,3.90
2019-03-26T20:18:59.413Z,4.83
2019-03-26T20:21:29.567Z,4.67
2019-03-26T20:23:59.710Z,5.67
2019-03-26T20:26:29.890Z,5.30
2019-03-26T20:29:00.077Z,5.50
2019-03-26T20:31:31.390Z,2.93
2019-03-26T20:34:01.530Z,4.77
2019-03-26T20:36:31.774Z,5.37
2019-03-26T20:39:01.934Z,3.90
2019-03-26T20:41:33.722Z,4.70
2019-03-26T20:44:04.026Z,5.50
2019-03-26T20:46:34.356Z,6.67
2019-03-26T20:49:05.566Z,5.37
2019-03-26T20:51:35.716Z,5.70
2019-03-26T20:54:06.025Z,4.20
2019-03-26T20:56:40.607Z,4.70
2019-03-26T20:59:09.554Z,3.67
2019-03-26T21:01:39.718Z,3.63
2019-03-26T21:04:09.948Z,3.10
2019-03-26T21:06:40.086Z,5.50
2019-03-26T21:09:10.290Z,4.90
2019-03-26T21:11:40.830Z,5.50
2019-03-26T21:14:10.977Z,3.90
2019-03-26T21:16:41.145Z,4.07
2019-03-26T21:19:11.336Z,4.10
2019-03-26T21:21:41.573Z,5.90
2019-03-26T21:24:11.752Z,3.57
2019-03-26T21:26:41.982Z,4.57
2019-03-26T21:29:12.113Z,3.63
2019-03-26T21:31:42.247Z,3.90
2019-03-26T21:34:12.415Z,4.30
2019-03-26T21:36:42.569Z,4.03
2019-03-26T21:39:12.723Z,5.17
2019-03-26T21:41:42.846Z,4.03
2019-03-26T21:44:13.011Z,4.50
2019-03-26T21:46:43.241Z,3.47
2019-03-26T21:49:13.417Z,4.17
2019-03-26T21:51:43.535Z,5.13
2019-03-26T21:54:13.676Z,4.13
2019-03-26T21:56:43.910Z,4.00
2019-03-26T21:59:14.065Z,3.93
2019-03-26T22:01:44.209Z,4.73
2019-03-26T22:04:14.334Z,4.43
2019-03-26T22:06:44.497Z,4.40
2019-03-26T22:09:14.621Z,4.27
2019-03-26T22:11:50.092Z,3.57
2019-03-26T22:14:21.911Z,4.77
2019-03-26T22:16:52.049Z,3.60
2019-03-26T22:19:28.543Z,3.50
2019-03-26T22:21:54.033Z,4.17
2019-03-26T22:24:24.295Z,4.03
2019-03-26T22:26:54.488Z,3.70
2019-03-26T22:29:24.641Z,3.23
2019-03-26T22:31:54.776Z,5.07
2019-03-26T22:34:24.983Z,3.57
2019-03-26T22:36:55.165Z,3.57
2019-03-26T22:39:25.318Z,4.33
2019-03-26T22:41:55.515Z,4.07
2019-03-26T22:44:31.168Z,3.63
2019-03-26T22:46:57.685Z,3.93
2019-03-26T22:49:27.810Z,4.80
2019-03-26T22:51:58.141Z,3.43
2019-03-26T22:54:28.282Z,2.10
2019-03-26T22:56:58.470Z,3.90
2019-03-26T22:59:28.631Z,4.57
2019-03-26T23:01:59.006Z,3.00
2019-03-26T23:04:29.149Z,3.27
2019-03-26T23:06:59.441Z,3.03
2019-03-26T23:09:29.604Z,4.47
2019-03-26T23:11:59.758Z,2.87
2019-03-26T23:14:29.906Z,2.20
2019-03-26T23:17:00.255Z,2.20
2019-03-26T23:19:30.507Z,3.70
2019-03-26T23:22:00.842Z,2.37
2019-03-26T23:24:30.998Z,3.63
2019-03-26T23:27:01.161Z,4.23
2019-03-26T23:29:31.325Z,4.13
2019-03-26T23:32:01.458Z,2.83
2019-03-26T23:34:31.639Z,3.33
2019-03-26T23:37:01.793Z,3.97
2019-03-26T23:39:31.968Z,4.17
2019-03-26T23:42:02.293Z,3.27
2019-03-26T23:44:32.437Z,3.80
2019-03-26T23:47:02.601Z,3.90
2019-03-26T23:49:32.758Z,3.50
2019-03-26T23:52:02.916Z,3.47
2019-03-26T23:54:35.365Z,2.90
2019-03-26T23:57:05.523Z,4.67
2019-03-26T23:59:35.698Z,4.07
